Time;durP1;ratioP1;P1;durP2;ratioP2;P2;SDS_P1;SDS_P2;PMS_P1;PMS_P2;Temp;Humidity;BMP_temperature;BMP_pressure;BME280_temperature;BME280_humidity;BME280_pressure;Samples;Min_cycle;Max_cycle;Signal;HPM_P1;HPM_P2
2023/08/21 00:00:09;;;;;;;8.35;4.18;;;16.20;99.90;;;;;;5084764;27;20118;-84
2023/08/21 00:02:35;;;;;;;7.65;4.25;;;16.20;99.90;;;;;;5093906;27;20047;-83
2023/08/21 00:05:01;;;;;;;7.60;3.83;;;16.20;99.90;;;;;;5063074;27;20112;-83
2023/08/21 00:07:27;;;;;;;7.53;4.05;;;16.20;99.90;;;;;;5091812;27;20144;-83
2023/08/21 00:09:53;;;;;;;8.25;4.60;;;16.20;99.90;;;;;;5083463;27;20043;-83
2023/08/21 00:12:24;;;;;;;6.50;3.88;;;16.10;99.90;;;;;;5068459;27;20129;-83
2023/08/21 00:14:50;;;;;;;5.38;3.83;;;16.10;99.90;;;;;;5092363;27;20482;-83
2023/08/21 00:17:16;;;;;;;6.03;3.80;;;16.10;99.90;;;;;;5065933;27;20046;-83
2023/08/21 00:19:41;;;;;;;5.20;3.28;;;16.00;99.90;;;;;;5092623;27;20070;-83
2023/08/21 00:22:07;;;;;;;6.13;3.67;;;16.00;99.90;;;;;;5067668;27;20529;-83
2023/08/21 00:24:33;;;;;;;5.80;3.28;;;15.90;99.90;;;;;;5096169;27;20049;-84
2023/08/21 00:26:59;;;;;;;7.43;3.75;;;15.90;99.90;;;;;;5101832;27;20536;-84
2023/08/21 00:29:25;;;;;;;7.05;3.50;;;16.00;99.90;;;;;;5096782;27;20043;-84
2023/08/21 00:31:50;;;;;;;5.95;3.50;;;15.80;99.90;;;;;;5066708;27;21158;-82
2023/08/21 00:34:16;;;;;;;5.38;3.25;;;15.80;99.90;;;;;;5078021;27;20047;-83
2023/08/21 00:36:42;;;;;;;8.25;3.90;;;15.80;99.90;;;;;;5075076;27;20496;-83
2023/08/21 00:39:07;;;;;;;7.13;3.55;;;15.80;99.90;;;;;;5064550;27;20114;-83
2023/08/21 00:41:34;;;;;;;8.70;3.92;;;15.70;99.90;;;;;;5069046;27;20404;-84
2023/08/21 00:44:00;;;;;;;7.80;3.40;;;15.80;99.90;;;;;;5080124;27;20059;-83
2023/08/21 00:46:26;;;;;;;10.30;4.03;;;15.80;99.90;;;;;;5068880;28;20035;-83
2023/08/21 00:48:52;;;;;;;8.15;4.00;;;15.80;99.90;;;;;;5068326;27;20043;-82
2023/08/21 00:51:18;;;;;;;8.02;3.33;;;15.80;99.90;;;;;;5092793;27;20054;-83
2023/08/21 00:53:44;;;;;;;6.60;3.47;;;15.70;99.90;;;;;;5079822;27;20039;-83
2023/08/21 00:56:10;;;;;;;8.43;3.50;;;15.70;99.90;;;;;;5097136;27;20549;-84
2023/08/21 00:58:37;;;;;;;8.82;3.70;;;15.70;99.90;;;;;;5068604;27;20428;-82
2023/08/21 01:01:04;;;;;;;8.02;3.50;;;15.70;99.90;;;;;;5081812;27;20066;-84
2023/08/21 01:03:30;;;;;;;9.52;3.90;;;15.70;99.90;;;;;;5081931;27;20044;-83
2023/08/21 01:05:56;;;;;;;10.20;4.28;;;15.70;99.90;;;;;;5069963;27;20484;-83
2023/08/21 01:09:07;;;;;;;7.93;4.30;;;15.70;99.90;;;;;;5095861;27;20145;-83
2023/08/21 01:12:09;;;;;;;8.25;4.15;;;15.70;99.90;;;;;;5054628;27;20558;-83
2023/08/21 01:15:08;;;;;;;7.00;4.40;;;15.70;99.90;;;;;;5081276;27;20082;-84
2023/08/21 01:17:37;;;;;;;8.32;4.05;;;15.70;99.90;;;;;;5077539;27;20499;-83
2023/08/21 01:20:06;;;;;;;7.82;4.15;;;15.70;99.90;;;;;;5078546;27;20043;-84
2023/08/21 01:22:39;;;;;;;10.70;3.78;;;15.70;99.90;;;;;;5064815;27;20061;-82
2023/08/21 01:25:07;;;;;;;5.22;3.40;;;15.60;99.90;;;;;;5094554;27;20628;-83
2023/08/21 01:27:33;;;;;;;7.60;3.25;;;15.60;99.90;;;;;;5087040;27;20170;-84
2023/08/21 01:30:01;;;;;;;7.55;3.47;;;15.60;99.90;;;;;;5094224;27;20122;-83
2023/08/21 01:32:56;;;;;;;6.20;3.50;;;15.50;99.90;;;;;;5089106;27;20047;-82
2023/08/21 01:35:23;;;;;;;8.50;3.83;;;15.50;99.90;;;;;;5091514;27;20047;-82
2023/08/21 01:37:50;;;;;;;5.18;3.65;;;15.50;99.90;;;;;;5062092;27;20039;-84
2023/08/21 01:40:23;;;;;;;7.43;4.10;;;15.50;99.90;;;;;;5100662;27;20672;-82
2023/08/21 01:42:49;;;;;;;5.28;3.42;;;15.50;99.90;;;;;;5098317;27;20054;-84
2023/08/21 01:45:15;;;;;;;9.32;4.40;;;15.40;99.90;;;;;;5062710;27;20047;-83
2023/08/21 01:47:40;;;;;;;9.93;4.32;;;15.40;99.90;;;;;;5066168;27;20096;-83
2023/08/21 01:50:09;;;;;;;10.13;4.30;;;15.40;99.90;;;;;;5081782;27;20118;-83
2023/08/21 01:52:42;;;;;;;8.50;3.88;;;15.60;99.90;;;;;;5066716;27;20042;-83
2023/08/21 01:55:08;;;;;;;5.10;3.58;;;15.40;99.90;;;;;;5080001;27;20180;-83
2023/08/21 01:57:34;;;;;;;5.63;3.17;;;15.40;99.90;;;;;;5078938;27;20438;-83
2023/08/21 02:00:00;;;;;;;5.63;2.67;;;15.40;99.90;;;;;;5077403;27;20065;-83
2023/08/21 02:02:26;;;;;;;3.78;2.22;;;15.30;99.90;;;;;;5075044;27;20039;-83
2023/08/21 02:04:51;;;;;;;4.75;2.10;;;15.30;99.90;;;;;;5078535;27;20123;-83
2023/08/21 02:07:17;;;;;;;3.67;2.00;;;15.30;99.90;;;;;;5080259;27;20086;-83
2023/08/21 02:09:43;;;;;;;4.80;2.30;;;15.30;99.90;;;;;;5068542;27;20051;-84
2023/08/21 02:12:09;;;;;;;5.32;2.58;;;15.20;99.90;;;;;;5076525;27;20122;-83
2023/08/21 02:14:35;;;;;;;3.78;1.85;;;15.20;99.90;;;;;;5077237;27;20071;-83
2023/08/21 02:17:02;;;;;;;3.13;2.08;;;15.20;99.90;;;;;;5081454;27;20423;-83
2023/08/21 02:19:28;;;;;;;3.50;1.92;;;15.10;99.90;;;;;;5083401;27;20452;-83
2023/08/21 02:21:53;;;;;;;2.97;1.90;;;15.10;99.90;;;;;;5078821;27;20409;-83
2023/08/21 02:24:19;;;;;;;3.22;2.08;;;15.10;99.90;;;;;;5075282;27;20043;-83
2023/08/21 02:26:45;;;;;;;4.25;1.95;;;15.10;99.90;;;;;;5077109;27;20054;-83
2023/08/21 02:29:11;;;;;;;3.63;2.50;;;15.00;99.90;;;;;;5061605;27;20043;-84
2023/08/21 02:31:38;;;;;;;3.45;1.98;;;15.00;99.90;;;;;;5076065;27;20043;-83
2023/08/21 02:34:05;;;;;;;6.15;2.30;;;15.00;99.90;;;;;;5083464;27;20070;-82
2023/08/21 02:36:30;;;;;;;4.28;2.10;;;15.00;99.90;;;;;;5075542;27;20061;-83
2023/08/21 02:38:56;;;;;;;4.82;2.70;;;14.90;99.90;;;;;;5096116;27;20047;-83
2023/08/21 02:41:23;;;;;;;5.57;2.80;;;14.90;99.90;;;;;;5049640;27;20039;-82
2023/08/21 02:43:49;;;;;;;4.10;2.63;;;15.40;99.90;;;;;;5097659;27;20085;-83
2023/08/21 02:46:16;;;;;;;5.60;2.67;;;14.90;99.90;;;;;;5065887;27;20511;-83
2023/08/21 02:48:42;;;;;;;5.18;3.25;;;14.90;99.90;;;;;;5092080;27;20090;-82
2023/08/21 02:51:08;;;;;;;5.90;2.75;;;14.90;99.90;;;;;;5063675;27;20435;-82
2023/08/21 02:53:34;;;;;;;5.10;3.20;;;14.80;99.90;;;;;;5090014;27;20039;-83
2023/08/21 02:55:59;;;;;;;8.48;3.42;;;14.80;99.90;;;;;;5089321;27;20093;-83
2023/08/21 02:58:25;;;;;;;5.18;3.20;;;14.80;99.90;;;;;;5090495;27;20070;-82
2023/08/21 03:00:51;;;;;;;4.75;2.85;;;14.80;99.90;;;;;;5082357;27;20039;-82
2023/08/21 03:03:16;;;;;;;6.60;3.67;;;14.80;99.90;;;;;;5077637;27;21740;-82
2023/08/21 03:05:42;;;;;;;5.80;3.03;;;14.80;99.90;;;;;;5070309;27;20035;-83
2023/08/21 03:08:08;;;;;;;7.72;3.25;;;14.80;99.90;;;;;;5077190;27;20456;-83
2023/08/21 03:10:36;;;;;;;4.72;3.00;;;14.80;99.90;;;;;;5097504;27;20502;-82
2023/08/21 03:13:05;;;;;;;7.43;3.20;;;14.80;99.90;;;;;;5080739;27;20051;-82
2023/08/21 03:15:31;;;;;;;6.32;3.55;;;14.80;99.90;;;;;;5078927;27;20046;-83
2023/08/21 03:17:57;;;;;;;6.53;3.35;;;14.80;99.90;;;;;;5079456;27;20046;-83
2023/08/21 03:20:22;;;;;;;6.85;3.55;;;14.70;99.90;;;;;;5114652;27;20039;-83
2023/08/21 03:22:48;;;;;;;7.70;3.50;;;14.40;99.90;;;;;;5058058;27;20079;-83
2023/08/21 03:25:14;;;;;;;4.45;3.47;;;14.80;99.90;;;;;;5077934;27;20174;-83
2023/08/21 03:27:44;;;;;;;7.45;3.60;;;14.70;99.90;;;;;;5076227;27;20161;-83
2023/08/21 03:30:10;;;;;;;7.28;4.05;;;14.70;99.90;;;;;;5094720;27;20079;-83
2023/08/21 03:32:36;;;;;;;6.55;3.80;;;14.70;99.90;;;;;;5077801;27;20498;-83
2023/08/21 03:35:01;;;;;;;6.65;3.78;;;14.70;99.90;;;;;;5075665;27;20047;-83
2023/08/21 03:37:27;;;;;;;7.25;3.97;;;14.70;99.90;;;;;;5090591;27;20426;-83
2023/08/21 03:39:53;;;;;;;8.27;4.07;;;14.70;99.90;;;;;;5044363;27;20042;-82
2023/08/21 03:42:20;;;;;;;8.32;4.03;;;14.70;99.90;;;;;;5095646;27;20044;-83
2023/08/21 03:44:48;;;;;;;6.53;4.10;;;14.70;99.90;;;;;;5083953;27;20046;-83
2023/08/21 03:47:14;;;;;;;8.43;4.45;;;14.70;99.90;;;;;;5062811;27;20050;-83
2023/08/21 03:49:40;;;;;;;10.23;4.60;;;14.70;99.90;;;;;;5093009;27;20047;-83
2023/08/21 03:52:06;;;;;;;9.63;4.60;;;14.70;99.90;;;;;;5080708;27;20039;-82
2023/08/21 03:54:32;;;;;;;8.00;4.30;;;14.70;99.90;;;;;;5061965;27;20434;-83
2023/08/21 03:56:58;;;;;;;10.52;4.28;;;14.70;99.90;;;;;;5061110;27;20055;-84
2023/08/21 03:59:27;;;;;;;10.23;4.45;;;14.70;99.90;;;;;;5074872;27;20046;-83
2023/08/21 04:01:53;;;;;;;9.27;3.92;;;14.70;99.90;;;;;;5079564;27;20051;-84
2023/08/21 04:04:19;;;;;;;7.65;4.70;;;14.70;99.90;;;;;;5075424;27;20130;-84
2023/08/21 04:06:45;;;;;;;12.30;4.63;;;14.30;99.90;;;;;;5066534;27;20051;-84
2023/08/21 04:09:10;;;;;;;7.65;4.53;;;14.70;99.90;;;;;;5089712;27;20135;-84
2023/08/21 04:11:36;;;;;;;9.30;4.50;;;14.70;99.90;;;;;;5074917;27;20039;-84
2023/08/21 04:14:02;;;;;;;8.43;4.47;;;14.70;99.90;;;;;;5088142;27;20043;-83
2023/08/21 04:16:30;;;;;;;9.15;4.70;;;14.70;99.90;;;;;;5066046;27;20047;-83
2023/08/21 04:18:58;;;;;;;10.93;4.75;;;14.70;99.90;;;;;;5093762;27;20039;-84
2023/08/21 04:21:24;;;;;;;10.27;4.30;;;14.70;99.90;;;;;;5063447;27;21938;-83
2023/08/21 04:23:50;;;;;;;8.02;3.90;;;14.70;99.90;;;;;;5077634;27;20065;-83
2023/08/21 04:26:16;;;;;;;7.95;4.13;;;14.70;99.90;;;;;;5047616;27;20059;-84
2023/08/21 04:28:41;;;;;;;7.63;4.13;;;14.70;99.90;;;;;;5095796;27;20051;-83
2023/08/21 04:31:08;;;;;;;7.97;4.63;;;14.70;99.90;;;;;;5077259;27;20062;-84
2023/08/21 04:33:34;;;;;;;7.57;4.65;;;14.70;99.90;;;;;;5094158;27;20086;-83
2023/08/21 04:36:00;;;;;;;6.82;3.92;;;14.70;99.90;;;;;;5098720;27;20035;-83
2023/08/21 04:38:28;;;;;;;6.70;4.43;;;14.70;99.90;;;;;;5093467;27;20099;-83
2023/08/21 04:40:53;;;;;;;6.00;3.83;;;14.70;99.90;;;;;;5094016;27;20082;-82
2023/08/21 04:43:19;;;;;;;7.32;4.07;;;15.20;99.90;;;;;;5087984;27;20043;-83
2023/08/21 04:45:50;;;;;;;9.02;3.88;;;14.70;99.90;;;;;;5081195;27;20067;-83
2023/08/21 04:48:16;;;;;;;5.75;3.63;;;14.80;99.90;;;;;;5078523;27;20047;-83
2023/08/21 04:50:47;;;;;;;7.25;3.90;;;14.80;99.90;;;;;;5067151;27;20139;-83
2023/08/21 04:53:13;;;;;;;8.20;3.90;;;14.70;99.90;;;;;;5096573;27;20043;-83
2023/08/21 04:55:42;;;;;;;7.28;4.45;;;14.80;99.90;;;;;;5093927;27;20077;-83
2023/08/21 04:58:09;;;;;;;9.55;4.80;;;14.80;99.90;;;;;;5092996;27;20027;-83
2023/08/21 05:00:35;;;;;;;9.73;5.03;;;14.80;99.90;;;;;;5064015;27;20040;-83
2023/08/21 05:03:02;;;;;;;10.07;4.93;;;14.90;99.90;;;;;;5092660;27;20052;-84
2023/08/21 05:05:27;;;;;;;13.30;5.10;;;14.90;99.90;;;;;;5081548;28;20042;-84
2023/08/21 05:07:53;;;;;;;7.85;4.45;;;14.90;99.90;;;;;;5093006;27;20062;-83
2023/08/21 05:10:19;;;;;;;8.88;4.90;;;15.00;99.90;;;;;;5061412;27;20043;-83
2023/08/21 05:12:47;;;;;;;7.85;4.43;;;14.90;99.90;;;;;;5094341;27;20039;-83
2023/08/21 05:15:12;;;;;;;6.18;4.13;;;15.00;99.90;;;;;;5080423;27;20123;-83
2023/08/21 05:17:38;;;;;;;6.90;4.20;;;15.00;99.90;;;;;;5070986;27;20043;-83
2023/08/21 05:20:04;;;;;;;8.90;4.47;;;15.00;99.90;;;;;;5101454;27;20046;-83
2023/08/21 05:22:30;;;;;;;7.70;4.95;;;15.10;99.90;;;;;;5084287;27;20043;-83
2023/08/21 05:24:56;;;;;;;7.10;4.25;;;15.10;99.90;;;;;;5089088;27;20397;-83
2023/08/21 05:27:22;;;;;;;8.70;4.30;;;15.10;99.90;;;;;;5090728;27;20122;-83
2023/08/21 05:29:50;;;;;;;9.32;5.03;;;15.20;99.90;;;;;;5084315;27;20134;-83
2023/08/21 05:32:16;;;;;;;10.85;5.80;;;15.20;99.90;;;;;;5104594;27;20053;-81
2023/08/21 05:34:42;;;;;;;11.27;5.13;;;15.30;99.90;;;;;;5087812;27;20138;-81
2023/08/21 05:37:08;;;;;;;9.55;5.03;;;15.30;99.90;;;;;;5077602;27;20074;-81
2023/08/21 05:39:34;;;;;;;10.70;5.20;;;15.40;99.90;;;;;;5085729;27;21422;-81
2023/08/21 05:41:59;;;;;;;7.97;5.28;;;15.40;99.90;;;;;;5116834;27;20055;-81
2023/08/21 05:44:25;;;;;;;10.15;5.90;;;15.50;99.90;;;;;;5095794;27;20501;-83
2023/08/21 05:46:52;;;;;;;10.38;5.65;;;15.50;99.90;;;;;;5098329;27;20039;-82
2023/08/21 05:49:18;;;;;;;9.88;5.75;;;15.60;99.90;;;;;;5067300;27;20053;-83
2023/08/21 05:51:44;;;;;;;14.50;5.47;;;15.60;99.90;;;;;;5084912;27;20047;-82
2023/08/21 05:54:10;;;;;;;10.13;5.25;;;15.70;99.90;;;;;;5072507;27;20046;-83
2023/08/21 05:56:36;;;;;;;10.40;5.60;;;15.70;99.90;;;;;;5089348;27;20035;-85
2023/08/21 05:59:02;;;;;;;12.75;6.30;;;15.80;99.90;;;;;;5111301;27;20096;-84
2023/08/21 06:01:27;;;;;;;11.20;5.10;;;15.90;99.90;;;;;;5086372;27;20056;-84
2023/08/21 06:03:54;;;;;;;10.32;5.75;;;15.90;99.90;;;;;;5095731;27;20073;-84
2023/08/21 06:06:20;;;;;;;10.60;6.07;;;16.00;99.90;;;;;;5096862;27;20485;-85
2023/08/21 06:08:48;;;;;;;8.65;5.75;;;16.00;99.90;;;;;;5070844;27;20048;-83
2023/08/21 06:11:15;;;;;;;12.25;5.85;;;16.10;99.90;;;;;;5083561;27;20050;-82
2023/08/21 06:13:41;;;;;;;9.50;5.38;;;16.20;99.90;;;;;;5082251;27;20043;-82
2023/08/21 06:16:07;;;;;;;12.65;6.95;;;16.20;99.90;;;;;;5080920;27;20099;-83
2023/08/21 06:18:34;;;;;;;14.45;7.57;;;16.30;99.90;;;;;;5099728;27;20122;-84
2023/08/21 06:20:59;;;;;;;12.90;6.90;;;16.40;99.90;;;;;;5071315;27;20108;-81
2023/08/21 06:23:25;;;;;;;10.05;6.90;;;16.50;99.90;;;;;;5100338;27;20040;-83
2023/08/21 06:25:54;;;;;;;11.73;6.75;;;16.60;99.90;;;;;;5093045;27;20672;-83
2023/08/21 06:28:20;;;;;;;11.77;7.05;;;16.80;99.90;;;;;;5091250;27;20074;-82
2023/08/21 06:30:45;;;;;;;12.07;7.28;;;16.90;99.90;;;;;;5102659;27;20050;-83
2023/08/21 06:33:11;;;;;;;14.05;7.65;;;17.00;99.90;;;;;;5078155;27;20039;-88
2023/08/21 06:35:39;;;;;;;15.45;7.82;;;17.10;99.90;;;;;;5103926;27;20072;-86
2023/08/21 06:38:05;;;;;;;13.93;7.32;;;17.30;99.90;;;;;;5091319;27;20040;-86
2023/08/21 06:40:31;;;;;;;13.13;6.93;;;17.40;99.90;;;;;;5075250;27;20157;-87
2023/08/21 06:42:58;;;;;;;14.70;7.30;;;17.50;99.90;;;;;;5103792;27;20111;-88
2023/08/21 06:45:24;;;;;;;13.50;7.40;;;17.70;99.90;;;;;;5108734;27;20051;-87
2023/08/21 06:47:51;;;;;;;12.93;6.93;;;17.80;99.90;;;;;;5106031;27;20044;-86
2023/08/21 06:50:17;;;;;;;12.93;6.68;;;18.00;99.90;;;;;;5104401;27;20040;-89
2023/08/21 06:52:43;;;;;;;9.60;6.57;;;18.20;99.90;;;;;;5073376;27;20043;-82
2023/08/21 06:55:09;;;;;;;11.65;6.25;;;18.30;99.90;;;;;;5087946;27;20054;-82
2023/08/21 06:57:37;;;;;;;14.13;6.90;;;18.50;99.90;;;;;;5090670;27;20072;-81
2023/08/21 07:00:05;;;;;;;13.15;5.82;;;18.70;99.90;;;;;;5102372;27;20047;-83
2023/08/21 07:02:31;;;;;;;8.60;5.22;;;18.80;99.90;;;;;;5100228;27;20054;-83
2023/08/21 07:04:57;;;;;;;10.35;5.70;;;19.00;99.90;;;;;;5085564;27;20059;-84
2023/08/21 07:07:22;;;;;;;11.23;5.38;;;19.20;99.90;;;;;;5110397;27;20055;-80
2023/08/21 07:09:50;;;;;;;12.63;5.15;;;19.90;99.90;;;;;;5075777;27;20051;-81
2023/08/21 07:12:16;;;;;;;12.23;4.90;;;19.60;99.90;;;;;;5110141;27;20038;-82
2023/08/21 07:14:41;;;;;;;10.80;4.68;;;19.80;99.90;;;;;;5088740;27;20055;-80
2023/08/21 07:17:07;;;;;;;13.07;4.57;;;20.00;99.90;;;;;;5103278;27;20051;-80
2023/08/21 07:19:40;;;;;;;6.63;3.13;;;20.20;99.90;;;;;;5119000;27;20091;-81
2023/08/21 07:22:54;;;;;;;10.70;3.03;;;20.30;99.90;;;;;;5089669;27;20062;-83
2023/08/21 07:25:22;;;;;;;7.50;3.17;;;20.60;99.90;;;;;;5119950;27;20108;-84
2023/08/21 07:27:47;;;;;;;7.95;3.00;;;20.70;99.90;;;;;;5095206;27;20051;-80
2023/08/21 07:30:16;;;;;;;9.93;3.00;;;20.90;99.90;;;;;;5104525;27;20044;-80
2023/08/21 07:32:42;;;;;;;6.60;2.40;;;21.50;99.90;;;;;;5111299;27;20039;-81
2023/08/21 07:35:08;;;;;;;6.72;2.70;;;21.30;99.90;;;;;;5105227;27;20040;-81
2023/08/21 07:37:34;;;;;;;6.68;1.63;;;21.50;99.90;;;;;;5100933;27;20043;-75
2023/08/21 07:39:59;;;;;;;6.60;1.70;;;21.70;99.90;;;;;;5074124;27;20066;-73
2023/08/21 07:42:25;;;;;;;7.22;1.65;;;21.90;98.90;;;;;;5117479;27;20111;-73
2023/08/21 07:44:51;;;;;;;6.05;1.70;;;22.00;97.30;;;;;;5095746;27;20071;-72
2023/08/21 07:47:17;;;;;;;5.10;1.48;;;22.20;96.10;;;;;;5116532;27;20046;-74
2023/08/21 07:49:43;;;;;;;4.68;1.33;;;22.30;95.00;;;;;;5083413;27;20062;-72
2023/08/21 07:52:08;;;;;;;8.50;1.70;;;22.50;94.00;;;;;;5125599;27;20286;-73
2023/08/21 07:54:34;;;;;;;7.28;2.20;;;22.70;92.90;;;;;;5095950;27;20047;-73
2023/08/21 07:57:00;;;;;;;7.78;1.80;;;22.90;91.50;;;;;;5094505;27;20577;-73
2023/08/21 07:59:26;;;;;;;5.50;1.65;;;23.00;89.40;;;;;;5081595;27;20058;-72
2023/08/21 08:01:52;;;;;;;7.03;2.13;;;23.10;87.10;;;;;;5115258;27;20413;-72
2023/08/21 08:04:19;;;;;;;5.75;1.70;;;23.20;84.20;;;;;;5088492;27;20039;-73
2023/08/21 08:06:45;;;;;;;4.40;1.20;;;23.30;81.30;;;;;;5098196;27;20115;-72
2023/08/21 08:09:11;;;;;;;5.30;1.83;;;23.40;79.20;;;;;;5095962;27;20043;-72
2023/08/21 08:11:37;;;;;;;4.47;1.33;;;23.50;76.80;;;;;;5096473;27;20103;-74
2023/08/21 08:14:03;;;;;;;5.88;1.40;;;23.70;75.70;;;;;;5112539;27;20768;-76
2023/08/21 08:16:28;;;;;;;7.00;1.42;;;23.90;74.40;;;;;;5095785;27;20816;-76
2023/08/21 08:18:54;;;;;;;7.40;1.63;;;24.00;72.00;;;;;;5085001;27;20047;-74
2023/08/21 08:21:20;;;;;;;7.20;1.60;;;24.10;69.40;;;;;;5116308;27;20039;-75
2023/08/21 08:23:46;;;;;;;4.63;1.60;;;24.10;68.00;;;;;;5068428;27;20170;-76
2023/08/21 08:26:11;;;;;;;7.65;1.50;;;24.50;66.60;;;;;;5096551;27;20107;-74
2023/08/21 08:28:38;;;;;;;4.13;1.50;;;24.60;63.50;;;;;;5096688;27;20384;-73
2023/08/21 08:31:04;;;;;;;6.15;1.52;;;24.70;61.40;;;;;;5082885;27;20051;-77
2023/08/21 08:33:30;;;;;;;6.30;1.63;;;24.90;59.60;;;;;;5096336;27;20088;-76
2023/08/21 08:35:56;;;;;;;4.75;1.52;;;24.90;56.30;;;;;;5103683;27;20050;-73
2023/08/21 08:38:22;;;;;;;6.03;1.65;;;25.00;54.90;;;;;;5113526;27;20053;-74
2023/08/21 08:40:50;;;;;;;4.45;1.30;;;25.10;54.00;;;;;;5112992;27;20059;-75
2023/08/21 08:43:17;;;;;;;6.47;1.60;;;25.20;50.80;;;;;;5095639;27;20075;-74
2023/08/21 08:45:47;;;;;;;7.07;1.65;;;25.30;48.60;;;;;;5099782;27;20058;-74
2023/08/21 08:48:12;;;;;;;5.97;1.42;;;25.40;46.50;;;;;;5094072;27;20153;-73
2023/08/21 08:50:39;;;;;;;6.45;1.48;;;25.50;44.10;;;;;;5056213;27;20146;-73
2023/08/21 08:53:08;;;;;;;5.60;1.33;;;25.60;43.00;;;;;;5098316;27;20054;-73
2023/08/21 08:55:34;;;;;;;6.15;1.50;;;25.70;38.30;;;;;;5103601;27;20042;-73
2023/08/21 08:57:59;;;;;;;6.13;1.63;;;25.80;37.50;;;;;;5098346;27;20054;-73
2023/08/21 09:00:26;;;;;;;8.07;1.60;;;25.90;34.50;;;;;;5099504;27;20097;-73
2023/08/21 09:02:52;;;;;;;6.68;1.50;;;26.00;30.50;;;;;;5099937;27;20058;-72
2023/08/21 09:05:17;;;;;;;4.28;1.45;;;26.00;25.20;;;;;;5101739;27;20048;-74
2023/08/21 09:07:43;;;;;;;6.35;1.20;;;26.20;22.80;;;;;;5099282;27;20051;-73
2023/08/21 09:10:15;;;;;;;6.45;1.30;;;26.20;18.50;;;;;;5097544;27;20124;-73
2023/08/21 09:12:41;;;;;;;6.93;1.60;;;26.20;16.10;;;;;;5102590;27;20051;-75
2023/08/21 09:15:08;;;;;;;5.20;1.52;;;26.30;14.60;;;;;;5119764;27;20122;-74
2023/08/21 09:17:33;;;;;;;4.65;1.40;;;26.50;14.20;;;;;;5099510;27;20130;-74
2023/08/21 09:20:07;;;;;;;5.63;1.40;;;26.60;13.20;;;;;;5085651;27;20047;-75
2023/08/21 09:22:33;;;;;;;6.40;1.30;;;26.90;9.00;;;;;;5101711;27;20489;-73
2023/08/21 09:25:07;;;;;;;6.22;1.98;;;27.10;8.50;;;;;;5112158;27;20044;-73
2023/08/21 09:27:37;;;;;;;4.32;1.30;;;27.20;1.00;;;;;;5084997;27;20066;-74
2023/08/21 09:30:12;;;;;;;4.93;1.20;;;27.10;1.00;;;;;;5086441;27;20080;-73
2023/08/21 09:33:00;;;;;;;3.88;1.25;;;27.20;1.00;;;;;;5097618;27;20074;-73
2023/08/21 09:35:26;;;;;;;4.22;1.23;;;27.20;1.00;;;;;;5079037;27;20054;-73
2023/08/21 09:37:53;;;;;;;7.38;1.67;;;27.40;1.00;;;;;;5101263;27;20051;-73
2023/08/21 09:40:19;;;;;;;8.25;1.95;;;27.50;1.00;;;;;;5082801;27;20054;-73
2023/08/21 09:42:45;;;;;;;6.22;1.67;;;27.40;1.00;;;;;;5097050;27;20107;-73
2023/08/21 09:45:10;;;;;;;5.80;1.42;;;27.50;1.00;;;;;;5095215;27;20055;-73
2023/08/21 09:47:39;;;;;;;6.72;2.33;;;27.30;1.00;;;;;;5100111;27;20053;-73
2023/08/21 09:50:05;;;;;;;4.97;1.83;;;27.10;1.00;;;;;;5081791;27;20091;-73
2023/08/21 09:52:31;;;;;;;8.18;2.20;;;26.90;4.60;;;;;;5095127;27;20126;-73
2023/08/21 09:54:57;;;;;;;9.45;2.45;;;26.90;6.20;;;;;;5099763;27;20196;-74
2023/08/21 09:57:24;;;;;;;6.30;2.28;;;27.00;7.90;;;;;;5099688;27;20074;-74
2023/08/21 09:59:56;;;;;;;10.13;2.72;;;27.20;8.80;;;;;;5099953;27;20051;-74
2023/08/21 10:02:24;;;;;;;8.30;3.00;;;27.50;3.00;;;;;;5097308;27;20420;-74
2023/08/21 10:04:52;;;;;;;9.25;3.10;;;27.50;1.00;;;;;;5085552;27;20039;-74
2023/08/21 10:07:22;;;;;;;9.02;3.40;;;27.60;1.20;;;;;;5094666;27;20126;-74
2023/08/21 10:09:48;;;;;;;6.82;2.90;;;27.80;1.00;;;;;;5096251;27;20390;-75
2023/08/21 10:12:19;;;;;;;9.77;3.58;;;27.90;1.00;;;;;;5097706;27;20055;-73
2023/08/21 10:14:45;;;;;;;8.18;3.95;;;28.00;1.00;;;;;;5097915;27;20520;-73
2023/08/21 10:17:11;;;;;;;8.38;3.65;;;28.10;1.00;;;;;;5098420;27;20043;-74
2023/08/21 10:19:36;;;;;;;6.38;3.30;;;28.10;1.00;;;;;;5113739;27;20046;-74
2023/08/21 10:22:03;;;;;;;10.10;3.50;;;28.20;1.00;;;;;;5089808;27;20047;-74
2023/08/21 10:24:36;;;;;;;7.43;4.00;;;28.30;1.00;;;;;;5099599;27;20070;-74
2023/08/21 10:27:02;;;;;;;10.90;3.90;;;28.30;1.00;;;;;;5091889;27;20040;-74
2023/08/21 10:29:31;;;;;;;7.05;3.97;;;28.30;1.00;;;;;;5093047;27;20092;-74
2023/08/21 10:32:04;;;;;;;10.48;3.97;;;28.10;1.00;;;;;;5083922;27;20040;-78
2023/08/21 10:34:35;;;;;;;10.02;4.20;;;28.20;1.00;;;;;;5082228;27;20062;-75
2023/08/21 10:37:07;;;;;;;8.75;4.53;;;28.20;1.00;;;;;;5092899;27;20050;-86
2023/08/21 10:39:35;;;;;;;9.65;4.55;;;28.20;1.00;;;;;;5095257;27;20397;-82
2023/08/21 10:42:08;;;;;;;9.75;4.93;;;28.10;1.00;;;;;;5083294;27;20603;-74
2023/08/21 10:44:58;;;;;;;9.82;3.95;;;28.10;1.00;;;;;;5103364;27;20051;-74
2023/08/21 10:47:27;;;;;;;9.00;4.35;;;28.00;5.00;;;;;;5110065;27;20043;-73
2023/08/21 10:49:54;;;;;;;10.05;4.40;;;28.00;8.80;;;;;;5094801;27;20116;-74
2023/08/21 10:52:25;;;;;;;8.07;3.80;;;28.10;8.50;;;;;;5112990;27;20047;-75
2023/08/21 10:54:53;;;;;;;7.55;3.92;;;28.00;10.50;;;;;;5078755;27;20039;-74
2023/08/21 10:57:19;;;;;;;12.07;4.15;;;28.00;11.10;;;;;;5095541;27;20051;-74
2023/08/21 10:59:56;;;;;;;11.25;3.33;;;27.90;12.40;;;;;;5094886;27;20081;-74
2023/08/21 11:02:23;;;;;;;10.38;3.75;;;28.00;14.70;;;;;;5111637;27;20081;-74
2023/08/21 11:04:50;;;;;;;8.38;2.90;;;28.10;15.30;;;;;;5075651;27;20078;-75
2023/08/21 11:07:16;;;;;;;7.13;2.67;;;28.30;14.40;;;;;;5079752;27;20184;-75
2023/08/21 11:09:43;;;;;;;9.10;2.42;;;28.20;13.40;;;;;;5095261;27;20499;-74
2023/08/21 11:12:10;;;;;;;10.20;2.25;;;28.40;12.80;;;;;;5095267;27;20051;-74
2023/08/21 11:14:37;;;;;;;5.13;1.67;;;28.50;7.90;;;;;;5094372;27;20054;-74
2023/08/21 11:17:03;;;;;;;6.40;1.92;;;28.50;1.10;;;;;;5096324;27;20055;-74
2023/08/21 11:19:33;;;;;;;4.88;1.48;;;28.50;1.50;;;;;;5077772;27;20594;-74
2023/08/21 11:22:04;;;;;;;6.50;1.60;;;28.50;1.00;;;;;;5092001;27;20070;-74
2023/08/21 11:24:43;;;;;;;7.68;1.70;;;28.60;1.00;;;;;;5094587;27;20045;-72
2023/08/21 11:27:12;;;;;;;9.02;1.90;;;28.80;1.00;;;;;;5093649;27;20107;-73
2023/08/21 11:29:46;;;;;;;6.97;1.73;;;29.00;1.00;;;;;;5068053;27;20057;-73
2023/08/21 11:32:23;;;;;;;4.45;1.50;;;29.10;1.00;;;;;;5071786;27;20393;-73
2023/08/21 11:34:56;;;;;;;7.10;1.65;;;29.00;1.00;;;;;;5093536;27;20055;-73
2023/08/21 11:37:24;;;;;;;6.35;1.48;;;29.20;1.00;;;;;;5091700;27;20873;-72
2023/08/21 11:39:51;;;;;;;4.95;1.33;;;29.10;1.00;;;;;;5091329;27;20115;-72
2023/08/21 11:42:18;;;;;;;6.30;1.30;;;29.10;1.00;;;;;;5075684;27;20108;-75
2023/08/21 11:44:50;;;;;;;6.93;1.30;;;29.10;1.00;;;;;;5092866;27;20035;-73
2023/08/21 11:47:17;;;;;;;5.47;1.33;;;29.00;1.00;;;;;;5090259;27;20084;-72
2023/08/21 11:49:47;;;;;;;4.20;1.20;;;29.00;1.00;;;;;;5098212;27;20067;-73
2023/08/21 11:52:14;;;;;;;3.95;1.27;;;29.20;1.00;;;;;;5092707;27;20046;-76
2023/08/21 11:54:41;;;;;;;5.72;1.30;;;29.10;1.00;;;;;;5097943;27;20107;-76
2023/08/21 11:57:16;;;;;;;3.00;1.10;;;28.90;1.00;;;;;;5097817;27;20192;-76
2023/08/21 11:59:42;;;;;;;;;;;28.90;1.00;;;;;;5095204;27;20513;-76
2023/08/21 12:02:16;;;;;;;5.80;1.13;;;28.60;1.00;;;;;;5113910;27;19920;-74
2023/08/21 12:04:43;;;;;;;4.57;1.20;;;28.80;1.00;;;;;;5092473;27;20043;-74
2023/08/21 12:07:09;;;;;;;5.20;1.08;;;28.70;1.00;;;;;;5096945;27;20051;-74
2023/08/21 12:09:35;;;;;;;4.72;1.13;;;28.80;1.00;;;;;;5096425;27;20403;-74
2023/08/21 12:12:01;;;;;;;3.95;1.35;;;29.00;1.00;;;;;;5095495;27;20052;-74
2023/08/21 12:14:28;;;;;;;3.88;1.17;;;28.90;1.00;;;;;;5078895;27;20044;-74
2023/08/21 12:16:54;;;;;;;5.28;1.27;;;28.80;1.00;;;;;;5095387;27;20079;-74
2023/08/21 12:19:23;;;;;;;4.30;1.42;;;28.60;1.00;;;;;;5096987;27;20049;-74
2023/08/21 12:21:49;;;;;;;5.82;1.20;;;28.50;1.00;;;;;;5113408;27;20121;-74
2023/08/21 12:24:15;;;;;;;4.25;1.20;;;28.50;1.00;;;;;;5096205;28;20039;-74
2023/08/21 12:26:41;;;;;;;4.70;1.27;;;28.40;1.00;;;;;;5093940;28;20046;-75
2023/08/21 12:29:06;;;;;;;5.25;1.45;;;28.50;1.00;;;;;;5072558;28;20389;-74
2023/08/21 12:31:32;;;;;;;5.30;1.75;;;28.50;1.00;;;;;;5082425;28;20051;-74
2023/08/21 12:33:59;;;;;;;5.65;1.52;;;28.50;1.00;;;;;;5097339;28;20553;-74
2023/08/21 12:36:25;;;;;;;5.53;1.80;;;28.70;1.00;;;;;;5065621;28;20047;-74
2023/08/21 12:38:50;;;;;;;5.00;1.67;;;28.70;1.00;;;;;;5095366;28;20039;-75
2023/08/21 12:41:16;;;;;;;6.03;1.80;;;28.90;1.00;;;;;;5089122;28;20490;-74
2023/08/21 12:43:43;;;;;;;6.07;1.90;;;29.10;1.00;;;;;;5096132;28;20490;-75
2023/08/21 12:46:09;;;;;;;5.57;1.45;;;29.10;1.00;;;;;;5097819;28;20055;-75
2023/08/21 12:48:35;;;;;;;6.75;1.80;;;29.30;1.00;;;;;;5114432;28;20070;-74